createdAt,value
2018-12-21T00:00:12.930Z,1003.08
2018-12-21T00:01:12.896Z,1003.04
2018-12-21T00:02:12.887Z,1003.03
2018-12-21T00:03:12.875Z,1002.95
2018-12-21T00:04:12.868Z,1002.98
2018-12-21T00:05:12.871Z,1003.00
2018-12-21T00:06:12.841Z,1002.96
2018-12-21T00:07:12.834Z,1002.99
2018-12-21T00:08:12.826Z,1002.96
2018-12-21T00:09:12.809Z,1002.93
2018-12-21T00:10:12.810Z,1002.95
2018-12-21T00:11:12.787Z,1002.94
2018-12-21T00:12:12.773Z,1002.90
2018-12-21T00:13:12.769Z,1002.90
2018-12-21T00:14:12.752Z,1002.92
2018-12-21T00:15:12.755Z,1002.89
2018-12-21T00:16:12.734Z,1002.90
2018-12-21T00:17:12.722Z,1002.89
2018-12-21T00:18:12.708Z,1002.90
2018-12-21T00:19:12.705Z,1002.84
2018-12-21T00:20:12.698Z,1002.84
2018-12-21T00:21:12.674Z,1002.81
2018-12-21T00:22:12.667Z,1002.78
2018-12-21T00:23:12.675Z,1002.82
2018-12-21T00:24:12.641Z,1002.81
2018-12-21T00:25:12.644Z,1002.80
2018-12-21T00:26:12.621Z,1002.77
2018-12-21T00:27:12.608Z,1002.82
2018-12-21T00:28:12.599Z,1002.77
2018-12-21T00:29:12.585Z,1002.76
2018-12-21T00:30:12.585Z,1002.76
2018-12-21T00:31:12.567Z,1002.75
2018-12-21T00:32:12.556Z,1002.69
2018-12-21T00:33:12.544Z,1002.70
2018-12-21T00:34:12.528Z,1002.68
2018-12-21T00:35:12.530Z,1002.70
2018-12-21T00:36:12.513Z,1002.65
2018-12-21T00:37:12.495Z,1002.68
2018-12-21T00:38:12.486Z,1002.72
2018-12-21T00:39:12.476Z,1002.65
2018-12-21T00:40:12.499Z,1002.66
2018-12-21T00:41:12.451Z,1002.69
2018-12-21T00:42:12.441Z,1002.64
2018-12-21T00:43:12.431Z,1002.62
2018-12-21T00:44:12.432Z,1002.66
2018-12-21T00:45:12.412Z,1002.58
2018-12-21T00:46:12.442Z,1002.58
2018-12-21T00:47:12.390Z,1002.60
2018-12-21T00:48:12.376Z,1002.58
2018-12-21T00:49:12.362Z,1002.59
2018-12-21T00:50:12.357Z,1002.59
2018-12-21T00:51:12.350Z,1002.57
2018-12-21T00:52:12.331Z,1002.57
2018-12-21T00:53:12.317Z,1002.51
2018-12-21T00:54:12.307Z,1002.54
2018-12-21T00:55:12.294Z,1002.55
2018-12-21T00:56:12.305Z,1002.54
2018-12-21T00:57:12.276Z,1002.59
2018-12-21T00:58:12.262Z,1002.51
2018-12-21T00:59:12.257Z,1002.50
2018-12-21T01:00:12.248Z,1002.47
2018-12-21T01:01:12.246Z,1002.48
2018-12-21T01:02:12.219Z,1002.55
2018-12-21T01:03:12.211Z,1002.53
2018-12-21T01:04:12.197Z,1002.53
2018-12-21T01:05:12.186Z,1002.51
2018-12-21T01:06:12.187Z,1002.49
2018-12-21T01:07:12.170Z,1002.47
2018-12-21T01:08:12.152Z,1002.43
2018-12-21T01:09:12.163Z,1002.42
2018-12-21T01:10:12.129Z,1002.38
2018-12-21T01:11:12.131Z,1002.34
2018-12-21T01:12:12.115Z,1002.31
2018-12-21T01:13:12.093Z,1002.31
2018-12-21T01:14:12.082Z,1002.25
2018-12-21T01:15:12.075Z,1002.25
2018-12-21T01:16:12.372Z,1002.20
2018-12-21T01:17:12.050Z,1002.25
2018-12-21T01:18:12.037Z,1002.26
2018-12-21T01:19:12.025Z,1002.22
2018-12-21T01:20:12.019Z,1002.22
2018-12-21T01:21:12.020Z,1002.21
2018-12-21T01:22:11.997Z,1002.23
2018-12-21T01:23:11.984Z,1002.23
2018-12-21T01:24:11.976Z,1002.19
2018-12-21T01:25:11.960Z,1002.19
2018-12-21T01:26:11.964Z,1002.24
2018-12-21T01:27:11.937Z,1002.23
2018-12-21T01:28:11.925Z,1002.24
2018-12-21T01:29:11.917Z,1002.23
2018-12-21T01:30:11.902Z,1002.23
2018-12-21T01:31:11.910Z,1002.26
2018-12-21T01:32:11.898Z,1002.23
2018-12-21T01:33:11.880Z,1002.30
2018-12-21T01:34:11.860Z,1002.28
2018-12-21T01:35:11.851Z,1002.29
2018-12-21T01:36:11.869Z,1002.28
2018-12-21T01:37:11.824Z,1002.29
2018-12-21T01:38:11.814Z,1002.33
2018-12-21T01:39:11.803Z,1002.31
2018-12-21T01:40:11.791Z,1002.28
2018-12-21T01:41:11.782Z,1002.35
2018-12-21T01:42:11.815Z,1002.30
2018-12-21T01:43:11.760Z,1002.28
2018-12-21T01:44:12.368Z,1002.27
2018-12-21T01:45:11.768Z,1002.25
2018-12-21T01:46:11.728Z,1002.24
2018-12-21T01:47:11.729Z,1002.22
2018-12-21T01:48:11.702Z,1002.27
2018-12-21T01:49:11.693Z,1002.24
2018-12-21T01:50:11.680Z,1002.16
2018-12-21T01:51:11.676Z,1002.18
2018-12-21T01:52:11.671Z,1002.16
2018-12-21T01:53:11.664Z,1002.10
2018-12-21T01:54:11.638Z,1002.09
2018-12-21T01:55:11.654Z,1002.08
2018-12-21T01:56:11.640Z,1002.06
2018-12-21T01:57:11.646Z,1002.05
2018-12-21T01:58:11.659Z,1002.04
2018-12-21T01:59:11.621Z,1002.03
2018-12-21T02:00:12.364Z,1002.05
2018-12-21T02:01:11.615Z,1002.03
2018-12-21T02:02:11.652Z,1001.98
2018-12-21T02:03:11.615Z,1002.00
2018-12-21T02:04:11.569Z,1001.99
2018-12-21T02:05:11.514Z,1001.99
2018-12-21T02:06:11.502Z,1001.98
2018-12-21T02:07:11.529Z,1001.98
2018-12-21T02:08:11.484Z,1001.92
2018-12-21T02:09:11.468Z,1001.93
2018-12-21T02:10:11.458Z,1001.92
2018-12-21T02:11:11.454Z,1001.95
2018-12-21T02:12:11.435Z,1001.91
2018-12-21T02:13:11.437Z,1001.93
2018-12-21T02:14:11.417Z,1001.92
2018-12-21T02:15:11.405Z,1001.93
2018-12-21T02:16:11.393Z,1001.92
2018-12-21T02:17:11.386Z,1001.91
2018-12-21T02:18:11.403Z,1001.89
2018-12-21T02:19:11.364Z,1001.91
2018-12-21T02:20:11.350Z,1001.95
2018-12-21T02:21:11.343Z,1001.94
2018-12-21T02:22:11.323Z,1001.88
2018-12-21T02:23:11.332Z,1001.85
2018-12-21T02:24:11.303Z,1001.85
2018-12-21T02:25:11.290Z,1001.86
2018-12-21T02:26:11.283Z,1001.88
2018-12-21T02:27:11.268Z,1001.83
2018-12-21T02:28:11.298Z,1001.83
2018-12-21T02:29:11.245Z,1001.82
2018-12-21T02:30:11.267Z,1001.77
2018-12-21T02:31:11.232Z,1001.80
2018-12-21T02:32:11.215Z,1001.83
2018-12-21T02:33:11.213Z,1001.76
2018-12-21T02:34:11.192Z,1001.74
2018-12-21T02:35:11.186Z,1001.73
2018-12-21T02:36:11.170Z,1001.76
2018-12-21T02:37:11.160Z,1001.67
2018-12-21T02:38:11.162Z,1001.67
2018-12-21T02:39:11.140Z,1001.61
2018-12-21T02:40:11.130Z,1001.57
2018-12-21T02:41:11.127Z,1001.62
2018-12-21T02:42:11.102Z,1001.55
2018-12-21T02:43:11.154Z,1001.54
2018-12-21T02:44:11.079Z,1001.53
2018-12-21T02:45:11.068Z,1001.49
2018-12-21T02:46:11.062Z,1001.49
2018-12-21T02:47:11.047Z,1001.46
2018-12-21T02:48:11.047Z,1001.42
2018-12-21T02:49:11.026Z,1001.40
2018-12-21T02:50:11.012Z,1001.40
2018-12-21T02:51:11.001Z,1001.39
2018-12-21T02:52:11.007Z,1001.34
2018-12-21T02:53:10.988Z,1001.36
2018-12-21T02:54:11.001Z,1001.36
2018-12-21T02:55:10.968Z,1001.35
2018-12-21T02:56:10.969Z,1001.29
2018-12-21T02:57:10.933Z,1001.24
2018-12-21T02:58:10.938Z,1001.24
2018-12-21T02:59:10.921Z,1001.21
2018-12-21T03:00:10.904Z,1001.20
2018-12-21T03:01:10.918Z,1001.20
2018-12-21T03:02:10.885Z,1001.20
2018-12-21T03:03:10.888Z,1001.20
2018-12-21T03:04:10.876Z,1001.14
2018-12-21T03:05:10.845Z,1001.11
2018-12-21T03:06:10.836Z,1001.02
2018-12-21T03:07:10.824Z,1001.02
2018-12-21T03:08:10.824Z,1001.03
2018-12-21T03:09:10.802Z,1001.00
2018-12-21T03:10:10.798Z,1001.00
2018-12-21T03:11:10.777Z,1000.99
2018-12-21T03:12:10.768Z,1001.00
2018-12-21T03:13:10.788Z,1001.00
2018-12-21T03:14:10.750Z,1001.04
2018-12-21T03:15:10.733Z,1001.04
2018-12-21T03:16:10.732Z,1001.04
2018-12-21T03:17:10.712Z,1001.06
2018-12-21T03:18:10.702Z,1001.03
2018-12-21T03:19:10.705Z,1001.04
2018-12-21T03:20:10.681Z,1001.03
2018-12-21T03:21:10.673Z,1001.08
2018-12-21T03:22:14.935Z,1001.02
2018-12-21T03:23:10.647Z,1001.08
2018-12-21T03:24:10.644Z,1001.05
2018-12-21T03:25:10.622Z,1001.02
2018-12-21T03:26:10.613Z,1001.02
2018-12-21T03:27:10.620Z,1001.01
2018-12-21T03:28:10.588Z,1000.94
2018-12-21T03:29:10.596Z,1000.94
2018-12-21T03:30:10.581Z,1000.94
2018-12-21T03:31:10.561Z,1000.93
2018-12-21T03:32:10.544Z,1000.88
2018-12-21T03:33:10.548Z,1000.84
2018-12-21T03:34:10.562Z,1000.83
2018-12-21T03:35:10.510Z,1000.76
2018-12-21T03:36:10.515Z,1000.82
2018-12-21T03:37:10.488Z,1000.80
2018-12-21T03:38:10.476Z,1000.82
2018-12-21T03:39:10.478Z,1000.85
2018-12-21T03:40:10.458Z,1000.81
2018-12-21T03:41:10.458Z,1000.79
2018-12-21T03:42:10.431Z,1000.74
2018-12-21T03:43:10.421Z,1000.71
2018-12-21T03:44:10.420Z,1000.65
2018-12-21T03:45:10.404Z,1000.72
2018-12-21T03:46:10.389Z,1000.70
2018-12-21T03:47:10.385Z,1000.63
2018-12-21T03:48:10.387Z,1000.59
2018-12-21T03:49:10.364Z,1000.53
2018-12-21T03:50:10.372Z,1000.48
2018-12-21T03:51:10.331Z,1000.44
2018-12-21T03:52:10.324Z,1000.36
2018-12-21T03:53:10.310Z,1000.37
2018-12-21T03:54:10.312Z,1000.32
2018-12-21T03:55:10.290Z,1000.28
2018-12-21T03:56:10.289Z,1000.27
2018-12-21T03:57:10.268Z,1000.21
2018-12-21T03:58:10.253Z,1000.17
2018-12-21T03:59:10.261Z,1000.13
2018-12-21T04:00:10.234Z,1000.12
2018-12-21T04:01:10.222Z,1000.09
2018-12-21T04:02:10.212Z,1000.03
2018-12-21T04:03:10.205Z,1000.06
2018-12-21T04:04:10.200Z,999.98
2018-12-21T04:05:10.178Z,1000.01
2018-12-21T04:06:10.167Z,999.93
2018-12-21T04:07:10.158Z,999.99
2018-12-21T04:08:10.147Z,999.98
2018-12-21T04:09:10.170Z,999.96
2018-12-21T04:10:10.122Z,999.96
2018-12-21T04:11:10.116Z,999.98
2018-12-21T04:12:10.107Z,999.90
2018-12-21T04:13:10.108Z,999.92
2018-12-21T04:14:10.090Z,999.86
2018-12-21T04:15:10.074Z,999.84
2018-12-21T04:16:10.056Z,999.80
2018-12-21T04:17:10.176Z,999.89
2018-12-21T04:18:10.034Z,999.80
2018-12-21T04:19:10.035Z,999.83
2018-12-21T04:20:10.007Z,999.78
2018-12-21T04:21:09.995Z,999.75
2018-12-21T04:22:10.002Z,999.72
2018-12-21T04:23:09.974Z,999.70
2018-12-21T04:24:09.985Z,999.69
2018-12-21T04:25:09.950Z,999.69
2018-12-21T04:26:09.956Z,999.61
2018-12-21T04:27:09.932Z,999.62
2018-12-21T04:28:09.924Z,999.59
2018-12-21T04:29:09.920Z,999.64
2018-12-21T04:30:09.903Z,999.64
2018-12-21T04:31:09.891Z,999.66
2018-12-21T04:32:09.882Z,999.62
2018-12-21T04:33:09.863Z,999.61
2018-12-21T04:34:09.862Z,999.57
2018-12-21T04:35:09.841Z,999.58
2018-12-21T04:36:09.858Z,999.58
2018-12-21T04:37:09.844Z,999.53
2018-12-21T04:38:09.820Z,999.58
2018-12-21T04:39:09.814Z,999.52
2018-12-21T04:40:09.801Z,999.54
2018-12-21T04:41:09.774Z,999.45
2018-12-21T04:42:09.830Z,999.45
2018-12-21T04:43:09.760Z,999.40
2018-12-21T04:44:09.787Z,999.40
2018-12-21T04:45:09.730Z,999.43
2018-12-21T04:46:09.720Z,999.43
2018-12-21T04:47:09.713Z,999.42
2018-12-21T04:48:09.705Z,999.37
2018-12-21T04:49:09.708Z,999.36
2018-12-21T04:50:09.694Z,999.27
2018-12-21T04:51:09.666Z,999.27
2018-12-21T04:52:09.663Z,999.28
2018-12-21T04:53:09.642Z,999.22
2018-12-21T04:54:09.646Z,999.22
2018-12-21T04:55:09.631Z,999.20
2018-12-21T04:56:09.613Z,999.19
2018-12-21T04:57:09.611Z,999.16
2018-12-21T04:58:09.584Z,999.13
2018-12-21T04:59:09.889Z,999.05
2018-12-21T05:00:09.593Z,999.02
2018-12-21T05:01:09.550Z,999.02
2018-12-21T05:02:09.546Z,999.00
2018-12-21T05:03:09.530Z,999.01
2018-12-21T05:04:09.519Z,999.00
2018-12-21T05:05:09.524Z,998.97
2018-12-21T05:06:09.494Z,998.97
2018-12-21T05:07:12.654Z,998.97
2018-12-21T05:08:09.473Z,998.92
2018-12-21T05:09:09.462Z,998.94
2018-12-21T05:10:09.474Z,998.90
2018-12-21T05:11:09.445Z,998.87
2018-12-21T05:12:09.438Z,998.87
2018-12-21T05:13:09.417Z,998.82
2018-12-21T05:14:09.410Z,998.79
2018-12-21T05:15:09.407Z,998.74
2018-12-21T05:16:09.392Z,998.76
2018-12-21T05:17:09.373Z,998.71
2018-12-21T05:18:09.363Z,998.72
2018-12-21T05:19:09.354Z,998.69
2018-12-21T05:20:09.352Z,998.72
2018-12-21T05:21:09.327Z,998.68
2018-12-21T05:22:09.348Z,998.65
2018-12-21T05:23:09.304Z,998.63
2018-12-21T05:24:09.294Z,998.64
2018-12-21T05:25:09.296Z,998.64
2018-12-21T05:26:09.271Z,998.63
2018-12-21T05:27:09.265Z,998.59
2018-12-21T05:28:09.265Z,998.58
2018-12-21T05:29:09.240Z,998.52
2018-12-21T05:30:09.241Z,998.54
2018-12-21T05:31:09.217Z,998.49
2018-12-21T05:32:09.205Z,998.50
2018-12-21T05:33:09.195Z,998.54
2018-12-21T05:34:09.188Z,998.47
2018-12-21T05:35:09.198Z,998.44
2018-12-21T05:36:09.162Z,998.46
2018-12-21T05:37:09.148Z,998.41
2018-12-21T05:38:09.213Z,998.40
2018-12-21T05:39:09.131Z,998.41
2018-12-21T05:40:09.144Z,998.38
2018-12-21T05:41:09.108Z,998.40
2018-12-21T05:42:09.094Z,998.36
2018-12-21T05:43:09.083Z,998.30
2018-12-21T05:44:09.071Z,998.31
2018-12-21T05:45:09.115Z,998.24
2018-12-21T05:46:09.067Z,998.20
2018-12-21T05:47:09.038Z,998.15
2018-12-21T05:48:09.026Z,998.14
2018-12-21T05:49:09.024Z,998.10
2018-12-21T05:50:09.016Z,998.07
2018-12-21T05:51:08.994Z,998.04
2018-12-21T05:52:08.991Z,998.00
2018-12-21T05:53:08.972Z,997.94
2018-12-21T05:54:08.960Z,997.92
2018-12-21T05:55:08.961Z,997.83
2018-12-21T05:56:08.941Z,997.84
2018-12-21T05:57:08.926Z,997.82
2018-12-21T05:58:08.938Z,997.85
2018-12-21T05:59:08.905Z,997.83
2018-12-21T06:00:08.904Z,997.80
2018-12-21T06:01:08.882Z,997.75
2018-12-21T06:02:08.871Z,997.82
2018-12-21T06:03:08.859Z,997.77
2018-12-21T06:04:08.865Z,997.75
2018-12-21T06:05:08.848Z,997.69
2018-12-21T06:06:08.826Z,997.71
2018-12-21T06:07:08.819Z,997.67
2018-12-21T06:08:08.828Z,997.63
2018-12-21T06:09:08.792Z,997.60
2018-12-21T06:10:08.807Z,997.61
2018-12-21T06:11:08.770Z,997.58
2018-12-21T06:12:08.762Z,997.52
2018-12-21T06:13:08.749Z,997.52
2018-12-21T06:14:08.738Z,997.47
2018-12-21T06:15:08.736Z,997.43
2018-12-21T06:16:08.741Z,997.36
2018-12-21T06:17:08.705Z,997.38
2018-12-21T06:18:08.694Z,997.33
2018-12-21T06:19:08.682Z,997.36
2018-12-21T06:20:08.680Z,997.33
2018-12-21T06:21:08.669Z,997.35
2018-12-21T06:22:08.653Z,997.27
2018-12-21T06:23:09.650Z,997.25
2018-12-21T06:24:08.624Z,997.22
2018-12-21T06:25:08.628Z,997.23
2018-12-21T06:26:08.603Z,997.26
2018-12-21T06:27:08.592Z,997.22
2018-12-21T06:28:08.587Z,997.12
2018-12-21T06:29:08.568Z,997.07
2018-12-21T06:30:08.570Z,997.03
2018-12-21T06:31:08.562Z,997.00
2018-12-21T06:32:08.535Z,996.97
2018-12-21T06:33:08.525Z,996.99
2018-12-21T06:34:08.521Z,996.98
2018-12-21T06:35:08.517Z,996.90
2018-12-21T06:36:08.491Z,996.85
2018-12-21T06:37:08.479Z,996.82
2018-12-21T06:38:08.470Z,996.78
2018-12-21T06:39:08.457Z,996.78
2018-12-21T06:40:08.460Z,996.76
2018-12-21T06:41:08.438Z,996.77
2018-12-21T06:42:08.424Z,996.71
2018-12-21T06:43:08.415Z,996.72
2018-12-21T06:44:08.415Z,996.69
2018-12-21T06:45:08.408Z,996.59
2018-12-21T06:46:14.139Z,996.55
2018-12-21T06:47:09.366Z,996.51
2018-12-21T06:48:08.379Z,996.41
2018-12-21T06:49:08.346Z,996.40
2018-12-21T06:50:08.349Z,996.28
2018-12-21T06:51:08.324Z,996.27
2018-12-21T06:52:08.318Z,996.22
2018-12-21T06:53:08.300Z,996.30
2018-12-21T06:54:08.315Z,996.26
2018-12-21T06:55:08.302Z,996.32
2018-12-21T06:56:08.279Z,996.29
2018-12-21T06:57:08.256Z,996.33
2018-12-21T06:58:08.247Z,996.31
2018-12-21T06:59:08.236Z,996.35
2018-12-21T07:00:08.223Z,996.30
2018-12-21T07:01:08.223Z,996.25
2018-12-21T07:02:08.224Z,996.32
2018-12-21T07:03:08.191Z,996.23
2018-12-21T07:04:08.179Z,996.25
2018-12-21T07:05:08.190Z,996.27
2018-12-21T07:06:08.167Z,996.32
2018-12-21T07:07:08.155Z,996.25
2018-12-21T07:08:08.150Z,996.28
2018-12-21T07:09:08.123Z,996.19
2018-12-21T07:10:08.112Z,996.16
2018-12-21T07:11:08.111Z,996.17
2018-12-21T07:12:08.091Z,996.16
2018-12-21T07:13:08.080Z,996.15
2018-12-21T07:14:08.066Z,996.14
2018-12-21T07:15:08.062Z,996.09
2018-12-21T07:16:08.080Z,996.08
2018-12-21T07:17:08.049Z,996.09
2018-12-21T07:18:08.024Z,996.06
2018-12-21T07:19:08.010Z,996.06
2018-12-21T07:20:09.710Z,996.05
2018-12-21T07:21:08.002Z,996.07
2018-12-21T07:22:07.984Z,996.03
2018-12-21T07:23:07.967Z,996.01
2018-12-21T07:24:07.956Z,996.04
2018-12-21T07:25:07.946Z,995.97
2018-12-21T07:26:07.943Z,995.92
2018-12-21T07:27:07.924Z,995.94
2018-12-21T07:28:07.911Z,995.95
2018-12-21T07:29:07.903Z,995.92
2018-12-21T07:30:07.898Z,995.84
2018-12-21T07:31:07.892Z,995.84
2018-12-21T07:32:07.893Z,995.78
2018-12-21T07:33:07.856Z,995.74
2018-12-21T07:34:07.850Z,995.68
2018-12-21T07:35:07.835Z,995.72
2018-12-21T07:36:08.682Z,995.70
2018-12-21T07:37:07.819Z,995.69
2018-12-21T07:38:07.807Z,995.58
2018-12-21T07:39:07.788Z,995.53
2018-12-21T07:40:07.797Z,995.53
2018-12-21T07:41:07.807Z,995.42
2018-12-21T07:42:07.757Z,995.41
2018-12-21T07:43:07.744Z,995.42
2018-12-21T07:44:07.737Z,995.53
2018-12-21T07:45:07.763Z,995.45
2018-12-21T07:46:07.744Z,995.34
2018-12-21T07:47:07.699Z,995.30
2018-12-21T07:48:07.701Z,995.26
2018-12-21T07:49:07.680Z,995.17
2018-12-21T07:50:07.673Z,995.09
2018-12-21T07:51:07.673Z,995.11
2018-12-21T07:52:07.658Z,995.00
2018-12-21T07:53:07.634Z,994.96
2018-12-21T07:54:07.629Z,994.92
2018-12-21T07:55:07.621Z,994.89
2018-12-21T07:56:07.603Z,994.86
2018-12-21T07:57:07.637Z,994.80
2018-12-21T07:58:07.583Z,994.78
2018-12-21T07:59:07.567Z,994.74
2018-12-21T08:00:07.555Z,994.76
2018-12-21T08:01:07.542Z,994.72
2018-12-21T08:02:07.542Z,994.72
2018-12-21T08:03:07.551Z,994.69
2018-12-21T08:04:07.509Z,994.65
2018-12-21T08:05:07.506Z,994.64
2018-12-21T08:06:07.498Z,994.61
2018-12-21T08:07:07.526Z,994.55
2018-12-21T08:08:07.475Z,994.61
2018-12-21T08:09:07.499Z,994.56
2018-12-21T08:10:07.458Z,994.52
2018-12-21T08:11:07.429Z,994.51
2018-12-21T08:12:07.450Z,994.47
2018-12-21T08:13:07.409Z,994.45
2018-12-21T08:14:07.401Z,994.45
2018-12-21T08:15:07.407Z,994.43
2018-12-21T08:16:07.380Z,994.36
2018-12-21T08:17:07.379Z,994.32
2018-12-21T08:18:07.357Z,994.30
2018-12-21T08:19:07.347Z,994.37
2018-12-21T08:20:07.333Z,994.35
2018-12-21T08:21:07.321Z,994.32
2018-12-21T08:22:07.322Z,994.28
2018-12-21T08:23:07.297Z,994.26
2018-12-21T08:24:07.311Z,994.26
2018-12-21T08:25:07.273Z,994.24
2018-12-21T08:26:07.284Z,994.24
2018-12-21T08:27:07.287Z,994.20
2018-12-21T08:28:07.256Z,994.20
2018-12-21T08:29:07.229Z,994.19
2018-12-21T08:30:07.217Z,994.17
2018-12-21T08:31:07.238Z,994.18
2018-12-21T08:32:07.197Z,994.16
2018-12-21T08:33:07.197Z,994.18
2018-12-21T08:34:07.173Z,994.17
2018-12-21T08:35:07.165Z,994.14
2018-12-21T08:36:07.155Z,994.14
2018-12-21T08:37:07.151Z,994.12
2018-12-21T08:38:07.140Z,994.07
2018-12-21T08:39:07.117Z,994.06
2018-12-21T08:40:07.107Z,994.06
2018-12-21T08:41:07.094Z,994.00
2018-12-21T08:42:07.085Z,993.99
2018-12-21T08:43:07.478Z,993.97
2018-12-21T08:44:07.064Z,993.94
2018-12-21T08:45:07.051Z,993.91
2018-12-21T08:46:07.042Z,993.92
2018-12-21T08:47:07.031Z,993.83
2018-12-21T08:48:07.031Z,993.86
2018-12-21T08:49:07.047Z,993.83
2018-12-21T08:50:06.997Z,993.80
2018-12-21T08:51:06.984Z,993.79
2018-12-21T08:52:06.974Z,993.72
2018-12-21T08:53:06.976Z,993.72
2018-12-21T08:54:06.951Z,993.68
2018-12-21T08:55:06.969Z,993.62
2018-12-21T08:56:06.930Z,993.58
2018-12-21T08:57:06.916Z,993.58
2018-12-21T08:58:06.918Z,993.59
2018-12-21T08:59:06.897Z,993.53
2018-12-21T09:00:06.885Z,993.52
2018-12-21T09:01:06.879Z,993.43
2018-12-21T09:02:06.861Z,993.44
2018-12-21T09:03:06.862Z,993.43
2018-12-21T09:04:06.841Z,993.36
2018-12-21T09:05:06.829Z,993.35
2018-12-21T09:06:06.817Z,993.29
2018-12-21T09:07:06.815Z,993.27
2018-12-21T09:08:06.815Z,993.31
2018-12-21T09:09:06.784Z,993.30
2018-12-21T09:10:06.772Z,993.25
2018-12-21T09:11:06.764Z,993.28
2018-12-21T09:12:06.764Z,993.23
2018-12-21T09:13:06.768Z,993.22
2018-12-21T09:14:07.264Z,993.20
2018-12-21T09:15:06.717Z,993.09
2018-12-21T09:16:06.706Z,993.14
2018-12-21T09:17:06.696Z,993.18
2018-12-21T09:18:06.712Z,993.12
2018-12-21T09:19:06.673Z,993.12
2018-12-21T09:20:06.671Z,993.08
2018-12-21T09:21:06.649Z,993.07
2018-12-21T09:22:06.637Z,992.97
2018-12-21T09:23:06.630Z,993.00
2018-12-21T09:24:06.630Z,992.99
2018-12-21T09:25:06.604Z,992.96
2018-12-21T09:26:06.611Z,992.96
2018-12-21T09:27:06.585Z,992.96
2018-12-21T09:28:06.579Z,992.86
2018-12-21T09:29:06.571Z,992.87
2018-12-21T09:30:06.549Z,992.81
2018-12-21T09:31:06.538Z,992.79
2018-12-21T09:32:06.537Z,992.82
2018-12-21T09:33:06.571Z,992.75
2018-12-21T09:34:06.527Z,992.75
2018-12-21T09:35:06.515Z,992.61
2018-12-21T09:36:06.483Z,992.60
2018-12-21T09:37:06.472Z,992.64
2018-12-21T09:38:06.493Z,992.61
2018-12-21T09:39:06.460Z,992.59
2018-12-21T09:40:06.457Z,992.58
2018-12-21T09:41:06.438Z,992.58
2018-12-21T09:42:06.422Z,992.56
2018-12-21T09:43:06.404Z,992.49
2018-12-21T09:44:06.413Z,992.47
2018-12-21T09:45:06.381Z,992.48
2018-12-21T09:46:06.373Z,992.42
2018-12-21T09:47:06.362Z,992.43
2018-12-21T09:48:06.347Z,992.41
2018-12-21T09:49:06.349Z,992.34
2018-12-21T09:50:06.325Z,992.31
2018-12-21T09:51:06.315Z,992.27
2018-12-21T09:52:06.303Z,992.25
2018-12-21T09:53:06.291Z,992.23
2018-12-21T09:54:10.032Z,992.25
2018-12-21T09:55:06.270Z,992.20
2018-12-21T09:56:06.265Z,992.19
2018-12-21T09:57:06.248Z,992.12
2018-12-21T09:58:06.253Z,992.09
2018-12-21T09:59:08.043Z,992.06
2018-12-21T10:00:06.221Z,992.04
2018-12-21T10:01:06.204Z,991.98
2018-12-21T10:02:06.196Z,991.97
2018-12-21T10:03:06.191Z,991.93
2018-12-21T10:04:06.181Z,991.92
2018-12-21T10:05:06.158Z,991.90
2018-12-21T10:06:06.150Z,991.85
2018-12-21T10:07:06.136Z,991.78
2018-12-21T10:08:06.124Z,991.79
2018-12-21T10:09:06.126Z,991.77
2018-12-21T10:10:06.102Z,991.72
2018-12-21T10:11:06.093Z,991.71
2018-12-21T10:12:06.079Z,991.63
2018-12-21T10:13:06.069Z,991.63
2018-12-21T10:14:06.070Z,991.66
2018-12-21T10:15:06.049Z,991.55
2018-12-21T10:16:06.045Z,991.50
2018-12-21T10:17:06.027Z,991.52
2018-12-21T10:18:06.025Z,991.42
2018-12-21T10:19:06.016Z,991.43
2018-12-21T10:20:06.008Z,991.38
2018-12-21T10:21:06.002Z,991.35
2018-12-21T10:22:05.974Z,991.27
2018-12-21T10:23:05.956Z,991.25
2018-12-21T10:24:05.968Z,991.19
2018-12-21T10:25:05.938Z,991.14
2018-12-21T10:26:05.923Z,991.11
2018-12-21T10:27:05.912Z,991.07
2018-12-21T10:28:05.909Z,991.04
2018-12-21T10:29:05.889Z,990.96
2018-12-21T10:30:05.891Z,990.96
2018-12-21T10:31:05.873Z,990.91
2018-12-21T10:32:05.861Z,990.89
2018-12-21T10:33:05.846Z,990.81
2018-12-21T10:34:05.836Z,990.78
2018-12-21T10:35:05.834Z,990.78
2018-12-21T10:36:05.812Z,990.77
2018-12-21T10:37:05.808Z,990.70
2018-12-21T10:38:05.789Z,990.71
2018-12-21T10:39:05.779Z,990.70
2018-12-21T10:40:05.782Z,990.74
2018-12-21T10:41:05.763Z,990.77
2018-12-21T10:42:05.751Z,990.76
2018-12-21T10:43:05.738Z,990.69
2018-12-21T10:44:05.736Z,990.66
2018-12-21T10:45:05.723Z,990.61
2018-12-21T10:46:05.700Z,990.57
2018-12-21T10:47:05.691Z,990.53
2018-12-21T10:48:05.689Z,990.50
2018-12-21T10:49:05.666Z,990.49
2018-12-21T10:50:05.666Z,990.52
2018-12-21T10:51:05.660Z,990.45
2018-12-21T10:52:05.633Z,990.42
2018-12-21T10:53:05.625Z,990.41
2018-12-21T10:54:05.611Z,990.36
2018-12-21T10:55:05.611Z,990.37
2018-12-21T10:56:05.591Z,990.35
2018-12-21T10:57:05.587Z,990.33
2018-12-21T10:58:05.566Z,990.27
2018-12-21T10:59:05.555Z,990.27
2018-12-21T11:00:05.560Z,990.21
2018-12-21T11:01:05.536Z,990.25
2018-12-21T11:02:05.527Z,990.19
2018-12-21T11:03:05.514Z,990.15
2018-12-21T11:04:05.504Z,990.12
2018-12-21T11:05:05.510Z,990.10
2018-12-21T11:06:05.519Z,990.03
2018-12-21T11:07:05.491Z,990.09
2018-12-21T11:08:05.456Z,990.05
2018-12-21T11:09:05.449Z,990.00
2018-12-21T11:10:05.444Z,989.98
2018-12-21T11:11:05.421Z,989.95
2018-12-21T11:12:05.410Z,989.95
2018-12-21T11:13:05.405Z,989.95
2018-12-21T11:14:05.389Z,989.87
2018-12-21T11:15:05.395Z,989.74
2018-12-21T11:16:05.370Z,989.72
2018-12-21T11:17:05.353Z,989.69
2018-12-21T11:18:05.346Z,989.74
2018-12-21T11:19:05.340Z,989.71
2018-12-21T11:20:05.334Z,989.61
2018-12-21T11:21:05.312Z,989.66
2018-12-21T11:22:05.298Z,989.78
2018-12-21T11:23:05.289Z,989.86
2018-12-21T11:24:05.282Z,989.76
2018-12-21T11:25:05.282Z,989.67
2018-12-21T11:26:05.253Z,989.52
2018-12-21T11:27:05.243Z,989.48
2018-12-21T11:28:05.234Z,989.53
2018-12-21T11:29:05.220Z,989.56
2018-12-21T11:30:05.243Z,989.50
2018-12-21T11:31:05.201Z,989.49
2018-12-21T11:32:05.193Z,989.63
2018-12-21T11:33:05.179Z,989.65
2018-12-21T11:34:05.165Z,989.62
2018-12-21T11:35:05.153Z,989.44
2018-12-21T11:36:05.165Z,989.39
2018-12-21T11:37:05.139Z,989.35
2018-12-21T11:38:05.126Z,989.39
2018-12-21T11:39:05.109Z,989.42
2018-12-21T11:40:05.096Z,989.56
2018-12-21T11:41:05.100Z,989.55
2018-12-21T11:42:05.076Z,989.55
2018-12-21T11:43:05.065Z,989.53
2018-12-21T11:44:05.052Z,989.45
2018-12-21T11:45:05.042Z,989.41
2018-12-21T11:46:05.046Z,989.32
2018-12-21T11:47:05.021Z,989.22
2018-12-21T11:48:05.010Z,989.25
2018-12-21T11:49:05.001Z,989.28
2018-12-21T11:50:04.986Z,989.28
2018-12-21T11:51:04.987Z,989.36
2018-12-21T11:52:04.966Z,989.28
2018-12-21T11:53:04.963Z,989.34
2018-12-21T11:54:04.945Z,989.26
2018-12-21T11:55:04.933Z,989.35
2018-12-21T11:56:04.934Z,989.36
2018-12-21T11:57:04.908Z,989.29
2018-12-21T11:58:04.901Z,989.33
2018-12-21T11:59:04.886Z,989.22
2018-12-21T12:00:04.888Z,989.15
2018-12-21T12:01:04.877Z,989.15
2018-12-21T12:02:04.854Z,989.08
2018-12-21T12:03:04.841Z,989.21
2018-12-21T12:04:04.831Z,989.15
2018-12-21T12:05:04.823Z,989.13
2018-12-21T12:06:04.821Z,989.20
2018-12-21T12:07:04.798Z,989.29
2018-12-21T12:08:04.786Z,989.29
2018-12-21T12:09:06.405Z,989.27
2018-12-21T12:10:04.765Z,989.30
2018-12-21T12:11:04.768Z,989.17
2018-12-21T12:12:04.741Z,989.13
2018-12-21T12:13:04.733Z,989.18
2018-12-21T12:14:04.718Z,989.08
2018-12-21T12:15:04.713Z,989.03
2018-12-21T12:16:04.730Z,989.09
2018-12-21T12:17:04.684Z,989.14
2018-12-21T12:18:04.675Z,989.17
2018-12-21T12:19:04.668Z,989.12
2018-12-21T12:20:04.746Z,989.12